createdAt,value
2018-05-16T00:00:18.383Z,19.14
2018-05-16T00:01:18.326Z,19.14
2018-05-16T00:02:18.338Z,19.16
2018-05-16T00:03:18.245Z,19.14
2018-05-16T00:04:18.354Z,19.16
2018-05-16T00:05:18.283Z,19.14
2018-05-16T00:06:18.292Z,19.14
2018-05-16T00:07:18.323Z,19.14
2018-05-16T00:08:18.423Z,19.15
2018-05-16T00:09:18.264Z,19.16
2018-05-16T00:10:18.267Z,19.14
2018-05-16T00:11:18.451Z,19.14
2018-05-16T00:12:18.259Z,19.12
2018-05-16T00:13:18.235Z,19.13
2018-05-16T00:14:18.210Z,19.14
2018-05-16T00:15:18.369Z,19.14
2018-05-16T00:16:18.260Z,19.13
2018-05-16T00:17:18.288Z,19.15
2018-05-16T00:18:18.264Z,19.12
2018-05-16T00:19:18.527Z,19.14
2018-05-16T00:20:18.288Z,19.14
2018-05-16T00:21:18.273Z,19.12
2018-05-16T00:22:18.404Z,19.1
2018-05-16T00:23:18.244Z,19.15
2018-05-16T00:24:18.397Z,19.12
2018-05-16T00:25:18.432Z,19.12
2018-05-16T00:26:18.181Z,19.14
2018-05-16T00:27:18.394Z,19.13
2018-05-16T00:28:18.668Z,19.12
2018-05-16T00:29:18.301Z,19.13
2018-05-16T00:30:18.405Z,19.14
2018-05-16T00:31:18.198Z,19.13
2018-05-16T00:32:18.269Z,19.13
2018-05-16T00:33:18.514Z,19.14
2018-05-16T00:34:18.476Z,19.12
2018-05-16T00:35:18.300Z,19.13
2018-05-16T00:36:18.365Z,19.13
2018-05-16T00:37:18.376Z,19.14
2018-05-16T00:38:18.390Z,19.14
2018-05-16T00:39:18.210Z,19.14
2018-05-16T00:40:18.332Z,19.13
2018-05-16T00:41:18.247Z,19.11
2018-05-16T00:42:18.232Z,19.1
2018-05-16T00:43:18.264Z,19.13
2018-05-16T00:44:18.389Z,19.13
2018-05-16T00:45:18.350Z,19.11
2018-05-16T00:46:18.258Z,19.11
2018-05-16T00:47:18.443Z,19.13
2018-05-16T00:48:18.384Z,19.12
2018-05-16T00:49:18.295Z,19.13
2018-05-16T00:50:18.193Z,19.1
2018-05-16T00:51:18.251Z,19.12
2018-05-16T00:52:18.449Z,19.12
2018-05-16T00:53:18.379Z,19.14
2018-05-16T00:54:18.481Z,19.12
2018-05-16T00:55:18.505Z,19.12
2018-05-16T00:56:18.287Z,19.13
2018-05-16T00:57:18.130Z,19.12
2018-05-16T00:58:18.350Z,19.14
2018-05-16T00:59:18.206Z,19.11
2018-05-16T01:00:18.326Z,19.12
2018-05-16T01:01:18.459Z,19.1
2018-05-16T01:02:18.392Z,19.13
2018-05-16T01:03:18.301Z,19.12
2018-05-16T01:04:18.378Z,19.12
2018-05-16T01:05:18.484Z,19.13
2018-05-16T01:06:18.292Z,19.13
2018-05-16T01:07:18.298Z,19.13
2018-05-16T01:08:18.203Z,19.12
2018-05-16T01:09:18.333Z,19.11
2018-05-16T01:10:18.184Z,19.11
2018-05-16T01:11:18.377Z,19.11
2018-05-16T01:12:18.276Z,19.11
2018-05-16T01:13:18.280Z,19.12
2018-05-16T01:14:18.579Z,19.12
2018-05-16T01:15:18.518Z,19.12
2018-05-16T01:16:18.414Z,19.12
2018-05-16T01:17:18.233Z,19.1
2018-05-16T01:18:18.455Z,19.13
2018-05-16T01:19:18.397Z,19.12
2018-05-16T01:20:18.237Z,19.12
2018-05-16T01:21:18.147Z,19.12
2018-05-16T01:22:18.369Z,19.11
2018-05-16T01:23:18.395Z,19.11
2018-05-16T01:24:18.332Z,19.11
2018-05-16T01:25:18.404Z,19.1
2018-05-16T01:26:18.119Z,19.09
2018-05-16T01:27:18.253Z,19.1
2018-05-16T01:28:18.430Z,19.1
2018-05-16T01:29:18.395Z,19.1
2018-05-16T01:30:18.319Z,19.09
2018-05-16T01:31:18.478Z,19.09
2018-05-16T01:32:18.303Z,19.11
2018-05-16T01:33:18.431Z,19.08
2018-05-16T01:34:18.341Z,19.09
2018-05-16T01:35:18.433Z,19.11
2018-05-16T01:36:18.236Z,19.11
2018-05-16T01:37:18.321Z,19.09
2018-05-16T01:38:18.224Z,19.1
2018-05-16T01:39:18.328Z,19.09
2018-05-16T01:40:18.410Z,19.1
2018-05-16T01:41:18.420Z,19.1
2018-05-16T01:42:18.301Z,19.1
2018-05-16T01:43:18.301Z,19.1
2018-05-16T01:44:18.366Z,19.1
2018-05-16T01:45:18.312Z,19.12
2018-05-16T01:46:18.181Z,19.09
2018-05-16T01:47:18.308Z,19.09
2018-05-16T01:48:18.194Z,19.09
2018-05-16T01:49:18.383Z,19.09
2018-05-16T01:50:18.316Z,19.1
2018-05-16T01:51:18.285Z,19.1
2018-05-16T01:52:18.359Z,19.08
2018-05-16T01:53:18.380Z,19.09
2018-05-16T01:54:18.430Z,19.09
2018-05-16T01:55:18.508Z,19.08
2018-05-16T01:56:18.421Z,19.09
2018-05-16T01:57:18.178Z,19.1
2018-05-16T01:58:18.314Z,19.09
2018-05-16T01:59:18.345Z,19.09
2018-05-16T02:00:18.298Z,19.11
2018-05-16T02:01:18.428Z,19.09
2018-05-16T02:02:18.224Z,19.1
2018-05-16T02:03:18.451Z,19.09
2018-05-16T02:04:18.452Z,19.09
2018-05-16T02:05:18.225Z,19.08
2018-05-16T02:06:18.193Z,19.07
2018-05-16T02:07:18.118Z,19.11
2018-05-16T02:08:18.330Z,19.09
2018-05-16T02:09:18.439Z,19.09
2018-05-16T02:10:18.430Z,19.07
2018-05-16T02:11:18.296Z,19.09
2018-05-16T02:12:18.288Z,19.1
2018-05-16T02:13:18.342Z,19.09
2018-05-16T02:14:18.396Z,19.09
2018-05-16T02:15:18.377Z,19.08
2018-05-16T02:16:18.275Z,19.1
2018-05-16T02:17:18.225Z,19.08
2018-05-16T02:18:18.342Z,19.09
2018-05-16T02:19:18.362Z,19.09
2018-05-16T02:20:18.413Z,19.09
2018-05-16T02:21:18.389Z,19.07
2018-05-16T02:22:18.309Z,19.08
2018-05-16T02:23:18.237Z,19.09
2018-05-16T02:24:18.383Z,19.09
2018-05-16T02:25:18.388Z,19.08
2018-05-16T02:26:18.433Z,19.09
2018-05-16T02:27:18.311Z,19.09
2018-05-16T02:28:18.164Z,19.09
2018-05-16T02:29:18.354Z,19.1
2018-05-16T02:30:18.450Z,19.06
2018-05-16T02:31:18.334Z,19.09
2018-05-16T02:32:18.298Z,19.09
2018-05-16T02:33:18.329Z,19.07
2018-05-16T02:34:18.242Z,19.08
2018-05-16T02:35:18.353Z,19.09
2018-05-16T02:36:18.474Z,19.07
2018-05-16T02:37:18.919Z,19.08
2018-05-16T02:38:18.165Z,19.08
2018-05-16T02:39:18.223Z,19.08
2018-05-16T02:40:18.417Z,19.09
2018-05-16T02:41:18.342Z,19.09
2018-05-16T02:42:18.367Z,19.08
2018-05-16T02:43:18.264Z,19.07
2018-05-16T02:44:18.263Z,19.07
2018-05-16T02:45:18.316Z,19.08
2018-05-16T02:46:18.383Z,19.09
2018-05-16T02:47:18.301Z,19.08
2018-05-16T02:48:18.268Z,19.07
2018-05-16T02:49:18.448Z,19.09
2018-05-16T02:50:49.526Z,19.07
2018-05-16T02:51:18.309Z,19.09
2018-05-16T02:52:18.366Z,19.09
2018-05-16T02:53:18.455Z,19.07
2018-05-16T02:54:18.520Z,19.07
2018-05-16T02:55:18.303Z,19.09
2018-05-16T02:56:18.231Z,19.08
2018-05-16T02:57:18.241Z,19.06
2018-05-16T02:58:18.355Z,19.06
2018-05-16T02:59:18.420Z,19.07
2018-05-16T03:00:18.321Z,19.06
2018-05-16T03:01:18.197Z,19.07
2018-05-16T03:02:18.370Z,19.06
2018-05-16T03:03:18.490Z,19.07
2018-05-16T03:04:18.476Z,19.06
2018-05-16T03:05:18.289Z,19.07
2018-05-16T03:06:18.137Z,19.08
2018-05-16T03:07:18.270Z,19.08
2018-05-16T03:08:18.350Z,19.09
2018-05-16T03:09:18.328Z,19.06
2018-05-16T03:10:18.409Z,19.06
2018-05-16T03:11:18.143Z,19.07
2018-05-16T03:12:18.581Z,19.07
2018-05-16T03:13:18.428Z,19.08
2018-05-16T03:14:18.314Z,19.08
2018-05-16T03:15:18.220Z,19.07
2018-05-16T03:16:18.252Z,19.08
2018-05-16T03:17:18.345Z,19.06
2018-05-16T03:18:18.287Z,19.08
2018-05-16T03:19:18.375Z,19.06
2018-05-16T03:20:18.414Z,19.06
2018-05-16T03:21:18.291Z,19.08
2018-05-16T03:22:18.439Z,19.08
2018-05-16T03:23:18.417Z,19.06
2018-05-16T03:24:18.420Z,19.07
2018-05-16T03:25:18.178Z,19.06
2018-05-16T03:26:18.405Z,19.07
2018-05-16T03:27:18.100Z,19.05
2018-05-16T03:28:18.331Z,19.06
2018-05-16T03:29:18.411Z,19.07
2018-05-16T03:30:18.419Z,19.07
2018-05-16T03:31:18.411Z,19.05
2018-05-16T03:32:18.379Z,19.07
2018-05-16T03:33:18.468Z,19.08
2018-05-16T03:34:18.134Z,19.06
2018-05-16T03:35:18.209Z,19.07
2018-05-16T03:36:18.332Z,19.07
2018-05-16T03:37:18.242Z,19.07
2018-05-16T03:38:18.387Z,19.05
2018-05-16T03:39:18.284Z,19.07
2018-05-16T03:40:18.192Z,19.07
2018-05-16T03:41:18.316Z,19.05
2018-05-16T03:42:18.296Z,19.07
2018-05-16T03:43:28.273Z,19.06
2018-05-16T03:44:18.303Z,19.06
2018-05-16T03:45:18.373Z,19.05
2018-05-16T03:46:18.340Z,19.05
2018-05-16T03:47:18.362Z,19.06
2018-05-16T03:48:18.350Z,19.05
2018-05-16T03:49:18.410Z,19.06
2018-05-16T03:50:18.182Z,19.05
2018-05-16T03:51:18.301Z,19.05
2018-05-16T03:52:18.069Z,19.06
2018-05-16T03:53:18.273Z,19.07
2018-05-16T03:54:18.213Z,19.05
2018-05-16T03:55:18.392Z,19.06
2018-05-16T03:56:18.303Z,19.08
2018-05-16T03:57:18.463Z,19.05
2018-05-16T03:58:18.328Z,19.06
2018-05-16T03:59:18.197Z,19.07
2018-05-16T04:00:18.346Z,19.06
2018-05-16T04:01:18.260Z,19.05
2018-05-16T04:02:18.533Z,19.05
2018-05-16T04:03:18.236Z,19.05
2018-05-16T04:04:18.399Z,19.05
2018-05-16T04:05:18.212Z,19.05
2018-05-16T04:06:18.347Z,19.05
2018-05-16T04:07:18.265Z,19.07
2018-05-16T04:08:18.188Z,19.06
2018-05-16T04:09:18.203Z,19.05
2018-05-16T04:10:18.201Z,19.05
2018-05-16T04:11:18.215Z,19.06
2018-05-16T04:12:18.308Z,19.06
2018-05-16T04:13:18.181Z,19.03
2018-05-16T04:14:18.286Z,19.05
2018-05-16T04:15:18.108Z,19.06
2018-05-16T04:16:18.260Z,19.05
2018-05-16T04:17:18.107Z,19.07
2018-05-16T04:18:18.247Z,19.08
2018-05-16T04:19:18.366Z,19.05
2018-05-16T04:20:18.323Z,19.05
2018-05-16T04:21:18.371Z,19.05
2018-05-16T04:22:18.234Z,19.05
2018-05-16T04:23:18.410Z,19.05
2018-05-16T04:24:18.170Z,19.06
2018-05-16T04:25:18.475Z,19.05
2018-05-16T04:26:18.144Z,19.03
2018-05-16T04:27:18.408Z,19.05
2018-05-16T04:28:18.343Z,19.05
2018-05-16T04:29:18.122Z,19.05
2018-05-16T04:30:18.166Z,19.03
2018-05-16T04:31:18.228Z,19.03
2018-05-16T04:32:18.329Z,19.05
2018-05-16T04:33:18.276Z,19.06
2018-05-16T04:34:18.286Z,19.06
2018-05-16T04:35:18.155Z,19.06
2018-05-16T04:36:18.176Z,19.03
2018-05-16T04:37:18.186Z,19.06
2018-05-16T04:38:18.308Z,19.05
2018-05-16T04:39:18.318Z,19.05
2018-05-16T04:40:18.372Z,19.06
2018-05-16T04:41:18.383Z,19.06
2018-05-16T04:42:18.301Z,19.05
2018-05-16T04:43:18.211Z,19.06
2018-05-16T04:44:18.157Z,19.05
2018-05-16T04:45:18.350Z,19.06
2018-05-16T04:46:18.256Z,19.06
2018-05-16T04:47:18.206Z,19.03
2018-05-16T04:48:18.420Z,19.05
2018-05-16T04:49:18.213Z,19.07
2018-05-16T04:50:18.386Z,19.05
2018-05-16T04:51:18.513Z,19.05
2018-05-16T04:52:18.465Z,19.06
2018-05-16T04:53:18.150Z,19.03
2018-05-16T04:54:18.426Z,19.05
2018-05-16T04:55:18.443Z,19.05
2018-05-16T04:56:18.436Z,19.06
2018-05-16T04:57:18.247Z,19.05
2018-05-16T04:58:18.196Z,19.06
2018-05-16T04:59:18.373Z,19.05
2018-05-16T05:00:18.275Z,19.05
2018-05-16T05:01:18.296Z,19.06
2018-05-16T05:02:18.162Z,19.05
2018-05-16T05:03:18.425Z,19.07
2018-05-16T05:04:18.338Z,19.06
2018-05-16T05:05:18.333Z,19.06
2018-05-16T05:06:18.196Z,19.03
2018-05-16T05:07:18.369Z,19.06
2018-05-16T05:08:18.324Z,19.05
2018-05-16T05:09:18.301Z,19.07
2018-05-16T05:10:18.438Z,19.08
2018-05-16T05:11:18.413Z,19.07
2018-05-16T05:12:18.281Z,19.05
2018-05-16T05:13:18.357Z,19.05
2018-05-16T05:14:18.269Z,19.02
2018-05-16T05:15:18.379Z,19.05
2018-05-16T05:16:18.312Z,19.06
2018-05-16T05:17:18.293Z,19.07
2018-05-16T05:18:19.168Z,19.07
2018-05-16T05:19:18.170Z,19.07
2018-05-16T05:20:18.174Z,19.07
2018-05-16T05:21:18.253Z,19.05
2018-05-16T05:22:18.351Z,19.05
2018-05-16T05:23:18.198Z,19.06
2018-05-16T05:24:18.158Z,19.05
2018-05-16T05:25:18.178Z,19.05
2018-05-16T05:26:18.610Z,19.07
2018-05-16T05:27:18.223Z,19.06
2018-05-16T05:28:18.300Z,19.06
2018-05-16T05:29:18.399Z,19.06
2018-05-16T05:30:18.928Z,19.06
2018-05-16T05:31:18.178Z,19.05
2018-05-16T05:32:18.291Z,19.07
2018-05-16T05:33:18.342Z,19.05
2018-05-16T05:34:18.272Z,19.06
2018-05-16T05:35:18.179Z,19.05
2018-05-16T05:36:18.204Z,19.07
2018-05-16T05:37:18.211Z,19.06
2018-05-16T05:38:18.104Z,19.06
2018-05-16T05:39:18.272Z,19.07
2018-05-16T05:40:18.426Z,19.06
2018-05-16T05:41:18.147Z,19.06
2018-05-16T05:42:18.055Z,19.05
2018-05-16T05:43:18.869Z,19.05
2018-05-16T05:44:18.222Z,19.05
2018-05-16T05:45:18.188Z,19.06
2018-05-16T05:46:18.255Z,19.03
2018-05-16T05:47:18.163Z,19.06
2018-05-16T05:48:18.288Z,19.06
2018-05-16T05:49:18.710Z,19.05
2018-05-16T05:50:18.192Z,19.07
2018-05-16T05:51:18.252Z,19.06
2018-05-16T05:52:18.362Z,19.06
2018-05-16T05:53:18.223Z,19.08
2018-05-16T05:54:18.140Z,19.06
2018-05-16T05:55:18.431Z,19.05
2018-05-16T05:56:18.351Z,19.06
2018-05-16T05:57:18.295Z,19.08
2018-05-16T05:58:18.259Z,19.07
2018-05-16T05:59:18.351Z,19.06
2018-05-16T06:00:18.147Z,19.07
2018-05-16T06:01:18.342Z,19.07
2018-05-16T06:02:18.170Z,19.07
2018-05-16T06:03:18.303Z,19.05
2018-05-16T06:04:18.275Z,19.07
2018-05-16T06:05:18.361Z,19.06
2018-05-16T06:06:18.182Z,19.06
2018-05-16T06:07:18.339Z,19.07
2018-05-16T06:08:18.312Z,19.06
2018-05-16T06:09:18.382Z,19.06
2018-05-16T06:10:18.321Z,19.06
2018-05-16T06:11:18.433Z,19.07
2018-05-16T06:12:18.366Z,19.07
2018-05-16T06:13:18.237Z,19.07
2018-05-16T06:14:18.108Z,19.06
2018-05-16T06:15:18.122Z,19.07
2018-05-16T06:16:18.269Z,19.07
2018-05-16T06:17:18.171Z,19.05
2018-05-16T06:18:18.205Z,19.05
2018-05-16T06:19:18.157Z,19.05
2018-05-16T06:20:18.267Z,19.05
2018-05-16T06:21:18.383Z,19.06
2018-05-16T06:22:18.224Z,19.08
2018-05-16T06:23:18.144Z,19.07
2018-05-16T06:24:18.388Z,19.05
2018-05-16T06:25:18.395Z,19.05
2018-05-16T06:26:18.276Z,19.06
2018-05-16T06:27:18.941Z,19.07
2018-05-16T06:28:18.391Z,19.05
2018-05-16T06:29:18.192Z,19.06
2018-05-16T06:30:18.226Z,19.06
2018-05-16T06:31:18.227Z,19.05
2018-05-16T06:32:18.140Z,19.06
2018-05-16T06:33:18.361Z,19.07
2018-05-16T06:34:18.377Z,19.07
2018-05-16T06:35:18.335Z,19.06
2018-05-16T06:36:18.138Z,19.05
2018-05-16T06:37:18.269Z,19.08
2018-05-16T06:38:18.236Z,19.07
2018-05-16T06:39:18.828Z,19.06
2018-05-16T06:40:17.963Z,19.07
2018-05-16T06:41:18.086Z,19.06
2018-05-16T06:42:18.413Z,19.06
2018-05-16T06:43:18.219Z,19.06
2018-05-16T06:44:18.312Z,19.07
2018-05-16T06:45:18.380Z,19.07
2018-05-16T06:46:18.221Z,19.07
2018-05-16T06:47:18.386Z,19.06
2018-05-16T06:48:18.290Z,19.06
2018-05-16T06:49:18.277Z,19.05
2018-05-16T06:50:18.111Z,19.07
2018-05-16T06:51:18.274Z,19.05
2018-05-16T06:52:18.311Z,19.06
2018-05-16T06:53:18.136Z,19.06
2018-05-16T06:54:18.182Z,19.07
2018-05-16T06:55:18.521Z,19.07
2018-05-16T06:56:18.108Z,19.05
2018-05-16T06:57:18.212Z,19.06
2018-05-16T06:58:18.343Z,19.06
2018-05-16T06:59:18.126Z,19.06
2018-05-16T07:00:18.354Z,19.06
2018-05-16T07:01:18.254Z,19.06
2018-05-16T07:02:18.213Z,19.08
2018-05-16T07:03:18.132Z,19.07
2018-05-16T07:04:18.372Z,19.06
2018-05-16T07:05:18.204Z,19.05
2018-05-16T07:06:18.195Z,19.08
2018-05-16T07:07:18.201Z,19.06
2018-05-16T07:08:18.059Z,19.07
2018-05-16T07:09:18.166Z,19.06
2018-05-16T07:10:18.267Z,19.08
2018-05-16T07:11:18.382Z,19.06
2018-05-16T07:12:18.271Z,19.06
2018-05-16T07:13:18.415Z,19.06
2018-05-16T07:14:18.181Z,19.07
2018-05-16T07:15:18.356Z,19.06
2018-05-16T07:16:18.179Z,19.06
2018-05-16T07:17:18.147Z,19.07
2018-05-16T07:18:18.180Z,19.05
2018-05-16T07:19:18.430Z,19.07
2018-05-16T07:20:18.324Z,19.06
2018-05-16T07:21:18.140Z,19.08
2018-05-16T07:22:18.357Z,19.05
2018-05-16T07:23:18.164Z,19.05
2018-05-16T07:24:18.125Z,19.06
2018-05-16T07:25:18.292Z,19.05
2018-05-16T07:26:28.390Z,19.06
2018-05-16T07:27:18.179Z,19.06
2018-05-16T07:28:18.316Z,19.05
2018-05-16T07:29:18.288Z,19.05
2018-05-16T07:30:18.362Z,19.06
2018-05-16T07:31:18.224Z,19.03
2018-05-16T07:32:18.489Z,19.06
2018-05-16T07:33:18.349Z,19.05
2018-05-16T07:34:18.068Z,19.06
2018-05-16T07:35:18.270Z,19.06
2018-05-16T07:36:18.447Z,19.06
2018-05-16T07:37:18.267Z,19.07
2018-05-16T07:38:18.119Z,19.05
2018-05-16T07:39:18.195Z,19.06
2018-05-16T07:40:18.233Z,19.05
2018-05-16T07:41:18.210Z,19.05
2018-05-16T07:42:18.198Z,19.05
2018-05-16T07:43:18.316Z,19.06
2018-05-16T07:44:18.329Z,19.07
2018-05-16T07:45:18.100Z,19.05
2018-05-16T07:46:18.325Z,19.05
2018-05-16T07:47:18.421Z,19.07
2018-05-16T07:48:18.397Z,19.05
2018-05-16T07:49:18.237Z,19.05
2018-05-16T07:50:18.098Z,19.03
2018-05-16T07:51:18.834Z,19.05
2018-05-16T07:52:18.215Z,19.05
2018-05-16T07:53:18.314Z,19.06
2018-05-16T07:54:18.185Z,19.06
2018-05-16T07:55:18.137Z,19.06
2018-05-16T07:56:18.333Z,19.02
2018-05-16T07:57:18.304Z,19.06
2018-05-16T07:58:18.149Z,19.07
2018-05-16T07:59:18.368Z,19.06
2018-05-16T08:00:18.135Z,19.07
2018-05-16T08:01:18.295Z,19.07
2018-05-16T08:02:18.420Z,19.05
2018-05-16T08:03:19.030Z,19.07
2018-05-16T08:04:18.152Z,19.03
2018-05-16T08:05:18.270Z,19.06
2018-05-16T08:06:18.230Z,19.05
2018-05-16T08:07:18.421Z,19.06
2018-05-16T08:08:18.304Z,19.06
2018-05-16T08:09:18.239Z,19.05
2018-05-16T08:10:18.007Z,19.05
2018-05-16T08:11:18.080Z,19.05
2018-05-16T08:12:18.703Z,19.05
2018-05-16T08:13:18.293Z,19.05
2018-05-16T08:14:18.232Z,19.05
2018-05-16T08:15:17.990Z,19.03
2018-05-16T08:16:18.165Z,19.05
2018-05-16T08:17:18.388Z,19.05
2018-05-16T08:18:18.132Z,19.05
2018-05-16T08:19:18.362Z,19.05
2018-05-16T08:20:18.352Z,19.05
2018-05-16T08:21:18.347Z,19.03
2018-05-16T08:22:18.300Z,19.02
2018-05-16T08:23:18.299Z,19.03
2018-05-16T08:24:18.070Z,19.03
2018-05-16T08:25:18.083Z,19.02
2018-05-16T08:26:18.218Z,19.06
2018-05-16T08:27:18.026Z,19.05
2018-05-16T08:28:18.406Z,19.05
2018-05-16T08:29:18.415Z,19.05
2018-05-16T08:30:18.372Z,19.05
2018-05-16T08:31:18.189Z,19.05
2018-05-16T08:32:18.251Z,19.05
2018-05-16T08:33:18.264Z,19.03
2018-05-16T08:34:18.372Z,19.03
2018-05-16T08:35:18.401Z,19.03
2018-05-16T08:36:28.240Z,19.05
2018-05-16T08:37:18.286Z,19.02
2018-05-16T08:38:18.167Z,19.03
2018-05-16T08:39:18.145Z,19.02
2018-05-16T08:40:18.133Z,19.02
2018-05-16T08:41:18.252Z,19.02
2018-05-16T08:42:18.160Z,19.03
2018-05-16T08:43:18.228Z,19.05
2018-05-16T08:44:18.153Z,19.05
2018-05-16T08:45:18.446Z,19.05
2018-05-16T08:46:18.213Z,19.03
2018-05-16T08:47:18.509Z,19.03
2018-05-16T08:48:18.317Z,19.02
2018-05-16T08:49:18.447Z,19.03
2018-05-16T08:50:18.104Z,19.05
2018-05-16T08:51:18.381Z,19.03
2018-05-16T08:52:18.116Z,19.02
2018-05-16T08:53:18.105Z,19.03
2018-05-16T08:54:18.298Z,19.05
2018-05-16T08:55:18.188Z,19.03
2018-05-16T08:56:18.200Z,19.05
2018-05-16T08:57:18.205Z,19.05
2018-05-16T08:58:18.305Z,19.02
2018-05-16T08:59:18.472Z,19.03
2018-05-16T09:00:18.192Z,19.05
2018-05-16T09:01:18.784Z,19.03
2018-05-16T09:02:19.804Z,19.02
2018-05-16T09:03:18.611Z,19.03
2018-05-16T09:04:18.657Z,19.05
2018-05-16T09:05:18.636Z,19.05
2018-05-16T09:06:18.561Z,19.05
2018-05-16T09:07:18.189Z,19.03
2018-05-16T09:08:18.711Z,19.03
2018-05-16T09:09:18.731Z,19.03
2018-05-16T09:10:18.122Z,19.05
2018-05-16T09:11:18.658Z,19.02
2018-05-16T09:12:19.768Z,19.03
2018-05-16T09:13:18.715Z,19.05
2018-05-16T09:14:18.306Z,19.02
2018-05-16T09:15:18.622Z,19.01
2018-05-16T09:16:19.956Z,19.01
2018-05-16T09:17:19.086Z,19.05
2018-05-16T09:18:18.676Z,19
2018-05-16T09:19:18.113Z,19.05
2018-05-16T09:20:18.189Z,19.01
2018-05-16T09:21:18.243Z,19.01
2018-05-16T09:22:20.255Z,19.02
2018-05-16T09:23:18.668Z,19.05
2018-05-16T09:24:18.465Z,19.02
2018-05-16T09:25:18.367Z,19.01
2018-05-16T09:26:18.279Z,19.01
2018-05-16T09:27:18.873Z,19.02
2018-05-16T09:28:18.449Z,19.02
2018-05-16T09:29:18.484Z,19.05
2018-05-16T09:30:19.694Z,19.01
2018-05-16T09:31:19.795Z,19.02
2018-05-16T09:32:18.258Z,19.03
2018-05-16T09:33:18.907Z,19.01
2018-05-16T09:34:18.527Z,19.05
2018-05-16T09:35:18.681Z,19.02
2018-05-16T09:36:18.639Z,19.02
2018-05-16T09:37:18.608Z,19.01
2018-05-16T09:38:18.778Z,19.01
2018-05-16T09:39:19.919Z,19.01
2018-05-16T09:40:19.019Z,19.02
2018-05-16T09:41:18.416Z,19.01
2018-05-16T09:42:18.272Z,19.01
2018-05-16T09:43:18.177Z,19.01
2018-05-16T09:44:18.659Z,19.01
2018-05-16T09:45:18.690Z,19.01
2018-05-16T09:46:20.059Z,19.02
2018-05-16T09:47:18.111Z,19.02
2018-05-16T09:48:18.893Z,19.01
2018-05-16T09:49:18.329Z,19.02
2018-05-16T09:50:18.307Z,19.01
2018-05-16T09:51:18.218Z,19.01
2018-05-16T09:52:18.257Z,18.99
2018-05-16T09:53:18.845Z,19.02
2018-05-16T09:54:18.327Z,19
2018-05-16T09:55:18.039Z,18.98
2018-05-16T09:56:18.472Z,18.96
2018-05-16T09:57:18.303Z,19
2018-05-16T09:58:18.209Z,19.02
2018-05-16T09:59:19.981Z,19.06
2018-05-16T10:00:18.715Z,19.05
2018-05-16T10:01:18.611Z,19.05
2018-05-16T10:02:18.614Z,19.05
2018-05-16T10:03:18.598Z,19.01
2018-05-16T10:04:18.759Z,19.05
2018-05-16T10:05:20.132Z,19.03
2018-05-16T10:06:20.609Z,19
2018-05-16T10:07:18.927Z,19.05
2018-05-16T10:08:18.677Z,19.05
2018-05-16T10:09:18.870Z,19.09
2018-05-16T10:10:20.188Z,19.11
2018-05-16T10:11:20.149Z,19.12
2018-05-16T10:12:18.849Z,19.11
2018-05-16T10:13:19.710Z,19.14
2018-05-16T10:14:18.842Z,19.15
2018-05-16T10:15:18.555Z,19.16
2018-05-16T10:16:18.662Z,19.14
2018-05-16T10:17:18.511Z,19.16
2018-05-16T10:18:18.618Z,19.16
2018-05-16T10:19:18.867Z,19.17
2018-05-16T10:20:20.990Z,19.18
2018-05-16T10:21:18.728Z,19.2
2018-05-16T10:22:18.731Z,19.2
2018-05-16T10:23:19.720Z,19.17
2018-05-16T10:24:18.603Z,19.2
2018-05-16T10:25:18.440Z,19.2
2018-05-16T10:26:18.631Z,19.21
2018-05-16T10:27:18.775Z,19.18
2018-05-16T10:28:20.044Z,19.2
2018-05-16T10:29:20.090Z,19.21
2018-05-16T10:30:18.921Z,19.21
2018-05-16T10:31:18.819Z,19.22
2018-05-16T10:32:18.811Z,19.2
2018-05-16T10:33:18.832Z,19.23
2018-05-16T10:34:18.867Z,19.22
2018-05-16T10:35:20.180Z,19.2
2018-05-16T10:36:20.237Z,19.18
2018-05-16T10:37:18.952Z,19.18
2018-05-16T10:38:18.733Z,19.21
2018-05-16T10:39:18.884Z,19.18
2018-05-16T10:40:19.679Z,19.16
2018-05-16T10:41:20.225Z,19.15
2018-05-16T10:42:20.148Z,19.16
2018-05-16T10:43:19.011Z,19.14
2018-05-16T10:44:18.864Z,19.17
2018-05-16T10:45:18.739Z,19.13
2018-05-16T10:46:18.725Z,19.15
2018-05-16T10:47:18.830Z,19.12
2018-05-16T10:48:18.913Z,19.13
2018-05-16T10:49:18.755Z,19.14
2018-05-16T10:50:18.535Z,19.13
2018-05-16T10:51:18.754Z,19.1
2018-05-16T10:52:19.080Z,19.13
2018-05-16T10:53:20.218Z,19.13
2018-05-16T10:54:20.138Z,19.11
2018-05-16T10:55:18.924Z,19.1
2018-05-16T10:56:19.602Z,19.11
2018-05-16T10:57:18.923Z,19.09
2018-05-16T10:58:18.853Z,19.12
2018-05-16T10:59:18.834Z,19.12
2018-05-16T11:00:18.802Z,19.1
2018-05-16T11:01:18.190Z,19.11
2018-05-16T11:02:18.291Z,19.09
2018-05-16T11:03:18.661Z,19.1
2018-05-16T11:04:18.267Z,19.09
2018-05-16T11:05:18.213Z,19.1
2018-05-16T11:06:18.143Z,19.1
2018-05-16T11:07:18.112Z,19.1
2018-05-16T11:08:18.105Z,19.11
2018-05-16T11:09:18.204Z,19.1
2018-05-16T11:10:18.059Z,19.07
2018-05-16T11:11:18.313Z,19.09
2018-05-16T11:12:18.353Z,19.1
2018-05-16T11:13:18.333Z,19.11
2018-05-16T11:14:18.299Z,19.07
2018-05-16T11:15:17.970Z,19.09
2018-05-16T11:16:18.191Z,19.09
2018-05-16T11:17:18.259Z,19.09
2018-05-16T11:18:18.223Z,19.1
2018-05-16T11:19:18.394Z,19.09
2018-05-16T11:20:18.278Z,19.07
2018-05-16T11:21:18.604Z,19.08
2018-05-16T11:22:18.180Z,19.08
2018-05-16T11:23:18.158Z,19.08
2018-05-16T11:24:18.298Z,19.08
2018-05-16T11:25:18.432Z,19.07
2018-05-16T11:26:18.249Z,19.08
2018-05-16T11:27:18.168Z,19.07
2018-05-16T11:28:18.113Z,19.09
2018-05-16T11:29:18.187Z,19.09
2018-05-16T11:30:18.058Z,19.07
2018-05-16T11:31:18.058Z,19.06
2018-05-16T11:32:18.172Z,19.07
2018-05-16T11:33:18.103Z,19.07
2018-05-16T11:34:18.547Z,19.06
2018-05-16T11:35:18.127Z,19.08
2018-05-16T11:36:18.288Z,19.07
2018-05-16T11:37:18.048Z,19.07
2018-05-16T11:38:18.260Z,19.06
2018-05-16T11:39:18.175Z,19.07
2018-05-16T11:40:18.299Z,19.08
2018-05-16T11:41:18.291Z,19.07
2018-05-16T11:42:18.166Z,19.07
2018-05-16T11:43:18.213Z,19.06
2018-05-16T11:44:18.201Z,19.06
2018-05-16T11:45:18.227Z,19.06
2018-05-16T11:46:18.221Z,19.06
2018-05-16T11:47:18.369Z,19.1
2018-05-16T11:48:28.161Z,19.06
2018-05-16T11:49:18.081Z,19.08
2018-05-16T11:50:18.235Z,19.09
2018-05-16T11:51:18.082Z,19.1
2018-05-16T11:52:18.341Z,19.1
2018-05-16T11:53:18.106Z,19.13
2018-05-16T11:54:18.267Z,19.13
2018-05-16T11:55:18.257Z,19.16
2018-05-16T11:56:18.285Z,19.16
2018-05-16T11:57:18.293Z,19.17
2018-05-16T11:58:18.141Z,19.17
2018-05-16T11:59:18.539Z,19.21
2018-05-16T12:00:18.298Z,19.18
2018-05-16T12:01:18.412Z,19.21
2018-05-16T12:02:18.310Z,19.24
2018-05-16T12:03:18.246Z,19.25
2018-05-16T12:04:20.635Z,19.24
2018-05-16T12:05:18.382Z,19.26
2018-05-16T12:06:18.297Z,19.25
2018-05-16T12:07:18.334Z,19.25
2018-05-16T12:08:18.261Z,19.27
2018-05-16T12:09:18.806Z,19.29
2018-05-16T12:10:20.618Z,19.29
2018-05-16T12:11:18.428Z,19.29
2018-05-16T12:12:20.259Z,19.29
2018-05-16T12:13:28.209Z,19.31
2018-05-16T12:14:18.270Z,19.31
2018-05-16T12:15:18.392Z,19.31
2018-05-16T12:16:18.298Z,19.31
2018-05-16T12:17:18.365Z,19.31
2018-05-16T12:18:18.265Z,19.31
2018-05-16T12:19:18.263Z,19.32
2018-05-16T12:20:18.536Z,19.32
2018-05-16T12:21:18.315Z,19.29
2018-05-16T12:22:18.371Z,19.29
2018-05-16T12:23:18.408Z,19.29
2018-05-16T12:24:18.388Z,19.29
2018-05-16T12:25:18.446Z,19.29
2018-05-16T12:26:18.266Z,19.3
2018-05-16T12:27:18.364Z,19.28
2018-05-16T12:28:18.299Z,19.28
2018-05-16T12:29:18.496Z,19.29
2018-05-16T12:30:18.312Z,19.27
2018-05-16T12:31:18.051Z,19.28
2018-05-16T12:32:18.150Z,19.25
2018-05-16T12:33:18.043Z,19.26
2018-05-16T12:34:18.033Z,19.26
2018-05-16T12:35:18.186Z,19.28
2018-05-16T12:36:18.160Z,19.28
2018-05-16T12:37:17.978Z,19.26
2018-05-16T12:38:17.928Z,19.28
2018-05-16T12:39:18.158Z,19.26
2018-05-16T12:40:18.119Z,19.28
2018-05-16T12:41:18.190Z,19.25
2018-05-16T12:42:18.161Z,19.27
2018-05-16T12:43:18.227Z,19.27
2018-05-16T12:44:18.287Z,19.25
2018-05-16T12:45:18.141Z,19.25
2018-05-16T12:46:18.061Z,19.25
2018-05-16T12:47:18.069Z,19.25
2018-05-16T12:48:18.141Z,19.24
2018-05-16T12:49:18.486Z,19.24
2018-05-16T12:50:18.187Z,19.24
2018-05-16T12:51:18.204Z,19.25
2018-05-16T12:52:18.099Z,19.26
2018-05-16T12:53:18.283Z,19.27
2018-05-16T12:54:18.127Z,19.26